Time;durP1;ratioP1;P1;durP2;ratioP2;P2;SDS_P1;SDS_P2;PMS_P1;PMS_P2;Temp;Humidity;BMP_temperature;BMP_pressure;BME280_temperature;BME280_humidity;BME280_pressure;Samples;Min_cycle;Max_cycle;Signal;HPM_P1;HPM_P2
2022/10/27 00:01:41;;;;;;;11.30;6.35;;;;;;;11.58;76.14;101002.36;1776590;79;20958;-64
2022/10/27 00:04:07;;;;;;;14.80;6.40;;;;;;;11.49;76.46;100998.61;1775580;78;21081;-63
2022/10/27 00:06:34;;;;;;;11.95;6.47;;;;;;;11.47;76.72;101004.97;1768730;78;21214;-64
2022/10/27 00:09:02;;;;;;;10.85;6.42;;;;;;;11.47;76.80;101010.23;1767796;78;21017;-64
2022/10/27 00:11:30;;;;;;;10.28;6.03;;;;;;;11.45;76.89;101011.67;1756533;80;21022;-64
2022/10/27 00:13:57;;;;;;;13.15;6.30;;;;;;;11.42;77.11;101011.89;1758693;78;21038;-64
2022/10/27 00:16:25;;;;;;;8.25;5.22;;;;;;;11.40;77.23;101014.26;1775214;80;21041;-64
2022/10/27 00:18:51;;;;;;;9.18;5.85;;;;;;;11.40;77.39;101019.07;1774869;78;21071;-64
2022/10/27 00:21:19;;;;;;;8.23;5.20;;;;;;;11.48;77.30;101016.72;1776764;80;21073;-64
2022/10/27 00:23:49;;;;;;;10.30;6.37;;;;;;;11.53;77.30;101020.31;1761090;78;21570;-63
2022/10/27 00:26:17;;;;;;;11.28;6.20;;;;;;;11.55;77.24;101011.84;1779671;80;21029;-63
2022/10/27 00:28:44;;;;;;;9.10;5.80;;;;;;;11.57;77.38;101016.51;1756530;78;21056;-64
2022/10/27 00:31:19;;;;;;;9.45;5.45;;;;;;;11.56;77.23;101016.63;1756172;81;21431;-63
2022/10/27 00:33:47;;;;;;;12.58;6.17;;;;;;;11.61;77.14;101020.58;1756604;78;21529;-64
2022/10/27 00:36:16;;;;;;;9.23;6.53;;;;;;;11.62;76.81;101022.28;1756666;78;21514;-64
2022/10/27 00:38:43;;;;;;;10.05;6.37;;;;;;;11.61;76.84;101023.22;1760966;78;21081;-63
2022/10/27 00:41:36;;;;;;;11.00;5.92;;;;;;;11.61;77.09;101025.02;1756212;81;21072;-64
2022/10/27 00:44:29;;;;;;;9.20;5.80;;;;;;;11.58;77.20;101028.71;1773898;78;21910;-63
2022/10/27 00:46:56;;;;;;;10.85;6.50;;;;;;;11.59;77.07;101029.09;1768999;80;21026;-64
2022/10/27 00:49:28;;;;;;;11.05;6.00;;;;;;;11.60;77.00;101032.10;1767059;79;21057;-64
2022/10/27 00:52:01;;;;;;;12.20;6.40;;;;;;;11.62;77.05;101027.55;1751106;80;21093;-64
2022/10/27 00:54:29;;;;;;;9.93;6.58;;;;;;;11.60;77.23;101033.87;1751407;79;20986;-64
2022/10/27 00:56:55;;;;;;;10.60;6.15;;;;;;;11.57;77.43;101034.13;1773720;79;21219;-64
2022/10/27 00:59:22;;;;;;;10.72;6.15;;;;;;;11.56;77.51;101038.53;1723737;82;21007;-64
2022/10/27 01:01:49;;;;;;;8.78;5.75;;;;;;;11.58;77.39;101036.63;1758932;79;21025;-64
2022/10/27 01:04:26;;;;;;;9.95;5.95;;;;;;;11.60;77.36;101037.37;1760291;79;21249;-64
2022/10/27 01:06:53;;;;;;;10.13;6.80;;;;;;;11.60;77.40;101040.01;1726185;82;21054;-64
2022/10/27 01:09:19;;;;;;;13.13;6.78;;;;;;;11.60;77.61;101033.42;1759813;79;21233;-65
2022/10/27 01:11:47;;;;;;;11.08;7.00;;;;;;;11.58;77.64;101039.74;1781391;80;20999;-64
2022/10/27 01:14:14;;;;;;;10.90;7.15;;;;;;;11.59;77.62;101039.63;1770050;79;21065;-64
2022/10/27 01:16:58;;;;;;;12.70;6.85;;;;;;;11.63;77.41;101034.97;1751055;79;21089;-64
2022/10/27 01:19:55;;;;;;;12.90;7.28;;;;;;;11.66;77.28;101037.38;1764380;79;21018;-64
2022/10/27 01:22:56;;;;;;;14.15;7.22;;;;;;;11.63;77.26;101043.73;1750642;82;22151;-63
2022/10/27 01:26:01;;;;;;;11.90;7.72;;;;;;;11.60;77.45;101039.14;1752768;79;21049;-63
2022/10/27 01:29:07;;;;;;;9.95;6.87;;;;;;;11.54;77.50;101056.27;1715403;82;21082;-63
2022/10/27 01:31:50;;;;;;;10.78;6.87;;;;;;;11.53;77.48;101058.52;1751553;80;21073;-64
2022/10/27 01:34:42;;;;;;;12.10;7.22;;;;;;;11.54;77.43;101054.95;1767706;79;21014;-64
2022/10/27 01:37:35;;;;;;;10.28;6.85;;;;;;;11.49;77.48;101052.64;1750678;80;21842;-64
2022/10/27 01:40:07;;;;;;;11.25;6.90;;;;;;;11.43;77.61;101053.56;1757994;79;21101;-64
2022/10/27 01:42:50;;;;;;;11.60;7.45;;;;;;;11.43;77.76;101060.16;1756488;80;21084;-62
2022/10/27 01:45:26;;;;;;;10.70;6.87;;;;;;;11.45;77.60;101058.27;1760934;79;21015;-63
2022/10/27 01:47:54;;;;;;;10.58;7.12;;;;;;;11.49;77.63;101062.34;1725160;80;21030;-63
2022/10/27 01:50:31;;;;;;;13.00;6.60;;;;;;;11.49;77.65;101074.21;1734893;80;21121;-62
2022/10/27 01:52:58;;;;;;;10.35;6.25;;;;;;;11.47;77.62;101070.36;1771417;81;21003;-62
2022/10/27 01:56:05;;;;;;;8.75;5.62;;;;;;;11.51;77.54;101071.81;1756988;79;21089;-62
2022/10/27 01:59:03;;;;;;;12.80;6.78;;;;;;;11.59;77.32;101075.22;1753554;79;27180;-63
2022/10/27 02:01:48;;;;;;;10.30;6.65;;;;;;;11.66;77.18;101065.89;1747189;79;21034;-62
2022/10/27 02:04:35;;;;;;;9.80;6.33;;;;;;;11.65;77.05;101068.19;1756839;79;21147;-63
2022/10/27 02:07:19;;;;;;;10.32;6.25;;;;;;;11.65;76.86;101066.00;1734071;82;21042;-62
2022/10/27 02:09:51;;;;;;;12.65;6.40;;;;;;;11.71;76.68;101075.62;1753727;79;21548;-63
2022/10/27 02:12:29;;;;;;;13.30;6.40;;;;;;;11.77;76.46;101082.71;1736263;82;21597;-63
2022/10/27 02:14:59;;;;;;;10.50;6.40;;;;;;;11.69;76.34;101078.02;1772194;79;21034;-63
2022/10/27 02:17:30;;;;;;;11.33;6.03;;;;;;;11.65;76.56;101089.28;1761732;80;21189;-62
2022/10/27 02:19:59;;;;;;;9.90;5.85;;;;;;;11.67;76.48;101090.00;1756191;79;21968;-62
2022/10/27 02:22:27;;;;;;;12.70;6.28;;;;;;;11.71;76.26;101095.39;1732887;80;21058;-62
2022/10/27 02:24:53;;;;;;;9.55;6.60;;;;;;;11.70;76.17;101088.91;1749362;79;21514;-63
2022/10/27 02:27:31;;;;;;;10.98;6.17;;;;;;;11.71;76.11;101095.88;1706813;84;21539;-62
2022/10/27 02:29:58;;;;;;;8.98;5.92;;;;;;;11.66;76.05;101097.53;1754781;79;21747;-63
2022/10/27 02:32:24;;;;;;;9.15;5.85;;;;;;;11.67;75.91;101104.50;1713927;82;21059;-62
2022/10/27 02:34:51;;;;;;;11.12;6.28;;;;;;;11.69;75.71;101101.75;1739667;80;21010;-63
2022/10/27 02:37:21;;;;;;;8.63;5.67;;;;;;;11.71;75.65;101104.63;1770278;80;20971;-63
2022/10/27 02:39:47;;;;;;;9.28;5.22;;;;;;;11.69;75.63;101115.77;1712920;82;21019;-63
2022/10/27 02:42:14;;;;;;;8.53;5.75;;;;;;;11.72;75.50;101113.39;1766377;80;22941;-63
2022/10/27 02:44:42;;;;;;;9.48;5.47;;;;;;;11.73;75.27;101119.50;1766451;79;21544;-63
2022/10/27 02:47:09;;;;;;;10.25;6.37;;;;;;;11.83;74.99;101117.86;1759534;79;21141;-63
2022/10/27 02:49:35;;;;;;;8.75;5.62;;;;;;;11.91;74.88;101122.13;1756190;79;21039;-63
2022/10/27 02:52:03;;;;;;;10.72;6.08;;;;;;;11.91;74.78;101122.13;1742594;82;21571;-64
2022/10/27 02:54:31;;;;;;;11.68;6.45;;;;;;;11.93;74.74;101130.77;1744516;79;21697;-63
2022/10/27 02:56:58;;;;;;;9.55;5.10;;;;;;;11.97;74.54;101127.42;1742256;81;21011;-63
2022/10/27 02:59:25;;;;;;;8.48;5.78;;;;;;;12.04;74.36;101125.55;1742815;79;20999;-63
2022/10/27 03:01:51;;;;;;;9.48;5.60;;;;;;;12.08;73.98;101122.20;1742427;82;21073;-62
2022/10/27 03:04:18;;;;;;;13.90;5.83;;;;;;;12.03;73.96;101130.44;1742857;79;21022;-63
2022/10/27 03:06:45;;;;;;;8.73;5.22;;;;;;;11.99;74.15;101130.32;1747278;79;21226;-63
2022/10/27 03:09:12;;;;;;;12.05;5.78;;;;;;;12.00;74.05;101133.34;1746237;79;21034;-63
2022/10/27 03:11:39;;;;;;;9.43;5.47;;;;;;;12.05;73.88;101130.33;1744092;80;21547;-63
2022/10/27 03:14:05;;;;;;;11.05;5.78;;;;;;;12.11;73.88;101133.02;1706577;82;21042;-63
2022/10/27 03:16:32;;;;;;;15.03;6.33;;;;;;;12.13;73.81;101132.41;1742977;79;21026;-63
2022/10/27 03:18:59;;;;;;;12.65;5.35;;;;;;;12.11;73.62;101135.16;1756204;80;21209;-63
2022/10/27 03:21:27;;;;;;;10.00;4.90;;;;;;;12.09;73.56;101131.80;1769758;79;20991;-62
2022/10/27 03:23:54;;;;;;;8.33;5.53;;;;;;;12.14;73.58;101138.03;1749298;79;21006;-62
2022/10/27 03:26:20;;;;;;;9.50;5.65;;;;;;;12.20;73.53;101133.62;1743034;79;21185;-63
2022/10/27 03:28:47;;;;;;;8.38;4.42;;;;;;;12.19;73.46;101131.48;1743857;79;21018;-62
2022/10/27 03:31:13;;;;;;;8.98;5.60;;;;;;;12.15;73.37;101142.37;1743030;79;21234;-64
2022/10/27 03:33:41;;;;;;;11.30;5.30;;;;;;;12.11;73.35;101146.20;1742577;80;21046;-63
2022/10/27 03:36:10;;;;;;;8.80;5.22;;;;;;;12.12;73.39;101143.91;1742752;79;21026;-63
2022/10/27 03:38:37;;;;;;;10.25;5.50;;;;;;;12.12;73.28;101147.41;1742680;80;21014;-64
2022/10/27 03:41:04;;;;;;;9.78;5.20;;;;;;;12.06;73.65;101145.22;1743072;79;21030;-63
2022/10/27 03:43:31;;;;;;;14.85;5.62;;;;;;;12.03;73.56;101146.27;1749075;80;21199;-63
2022/10/27 03:45:58;;;;;;;13.40;5.58;;;;;;;12.05;73.62;101141.75;1744186;79;21025;-63
2022/10/27 03:48:25;;;;;;;10.98;5.80;;;;;;;12.07;73.57;101145.11;1750962;80;21069;-64
2022/10/27 03:50:52;;;;;;;12.73;5.80;;;;;;;12.07;73.45;101143.78;1753226;79;20998;-63
2022/10/27 03:53:18;;;;;;;8.95;5.28;;;;;;;12.02;73.57;101151.20;1751376;79;20999;-63
2022/10/27 03:55:47;;;;;;;8.60;5.45;;;;;;;12.03;73.56;101155.50;1758917;79;21215;-64
2022/10/27 03:58:15;;;;;;;13.28;6.80;;;;;;;12.00;73.75;101149.16;1772207;79;21058;-63
2022/10/27 04:00:41;;;;;;;13.08;8.70;;;;;;;12.00;73.69;101150.48;1769003;79;21020;-63
2022/10/27 04:03:07;;;;;;;8.65;6.42;;;;;;;12.01;73.81;101156.09;1768887;80;21026;-63
2022/10/27 04:05:35;;;;;;;10.30;6.00;;;;;;;12.01;73.88;101163.18;1766866;79;21542;-62
2022/10/27 04:08:02;;;;;;;8.58;5.20;;;;;;;11.97;73.96;101159.07;1772662;79;21247;-64
2022/10/27 04:10:30;;;;;;;8.93;5.62;;;;;;;11.96;74.05;101164.00;1761951;79;21069;-63
2022/10/27 04:12:58;;;;;;;9.73;5.65;;;;;;;11.98;74.01;101160.77;1773027;79;21565;-63
2022/10/27 04:15:26;;;;;;;11.20;6.15;;;;;;;11.98;74.05;101168.67;1766078;79;21042;-63
2022/10/27 04:17:58;;;;;;;10.03;5.67;;;;;;;11.92;74.38;101163.39;1764194;80;20952;-64
2022/10/27 04:20:25;;;;;;;11.88;5.53;;;;;;;11.93;74.58;101165.53;1767649;79;21140;-65
2022/10/27 04:22:57;;;;;;;10.23;5.33;;;;;;;11.99;74.38;101169.89;1769500;79;21004;-64
2022/10/27 04:25:25;;;;;;;9.53;6.25;;;;;;;12.03;74.27;101173.97;1766278;79;20972;-64
2022/10/27 04:28:06;;;;;;;11.43;6.50;;;;;;;12.07;74.32;101171.97;1767738;80;21061;-64
2022/10/27 04:30:34;;;;;;;16.85;6.42;;;;;;;12.13;74.10;101174.62;1762554;79;21031;-63
2022/10/27 04:33:01;;;;;;;10.60;6.37;;;;;;;12.04;74.25;101182.74;1771252;80;21223;-63
2022/10/27 04:35:28;;;;;;;10.60;6.22;;;;;;;12.00;74.30;101179.95;1768261;79;21126;-63
2022/10/27 04:37:57;;;;;;;10.65;6.12;;;;;;;12.00;74.28;101175.99;1732930;81;21102;-63
2022/10/27 04:40:23;;;;;;;13.18;6.37;;;;;;;12.01;74.31;101171.09;1761963;79;21059;-63
2022/10/27 04:42:51;;;;;;;11.30;6.65;;;;;;;12.03;74.44;101174.45;1751085;80;21063;-62
2022/10/27 04:45:18;;;;;;;9.23;6.15;;;;;;;12.04;74.52;101182.26;1756253;79;21248;-65
2022/10/27 04:47:45;;;;;;;11.00;5.28;;;;;;;12.01;74.40;101178.52;1761202;80;21507;-63
2022/10/27 04:50:14;;;;;;;9.98;5.95;;;;;;;12.00;74.40;101179.49;1728948;82;21504;-63
2022/10/27 04:52:41;;;;;;;12.05;6.85;;;;;;;12.06;74.18;101187.42;1773342;80;21543;-63
2022/10/27 04:55:08;;;;;;;10.72;6.17;;;;;;;12.10;74.13;101189.36;1773709;79;21323;-64
2022/10/27 04:57:35;;;;;;;10.23;6.35;;;;;;;12.10;74.02;101188.03;1751314;79;22205;-64
2022/10/27 05:00:03;;;;;;;12.98;6.72;;;;;;;12.13;74.10;101201.84;1764009;79;21562;-65
2022/10/27 05:02:30;;;;;;;11.68;6.37;;;;;;;12.15;73.97;101201.23;1753774;80;21085;-64
2022/10/27 05:04:56;;;;;;;11.30;6.65;;;;;;;12.23;73.73;101209.92;1777719;79;21074;-63
2022/10/27 05:07:23;;;;;;;10.05;6.67;;;;;;;12.27;73.66;101204.77;1751030;79;21605;-65
2022/10/27 05:09:50;;;;;;;11.03;6.33;;;;;;;12.28;73.50;101204.31;1765263;79;21090;-64
2022/10/27 05:12:17;;;;;;;11.25;7.45;;;;;;;12.27;73.34;101208.73;1771616;79;20983;-65
2022/10/27 05:14:43;;;;;;;11.10;6.42;;;;;;;12.24;73.31;101210.30;1779594;79;21046;-63
2022/10/27 05:17:10;;;;;;;16.05;5.67;;;;;;;12.27;73.22;101210.05;1754541;79;21062;-64
2022/10/27 05:19:38;;;;;;;15.75;6.78;;;;;;;12.31;73.26;101211.52;1766203;79;20991;-64
2022/10/27 05:22:04;;;;;;;10.78;6.12;;;;;;;12.33;72.92;101213.56;1756791;80;21257;-64
2022/10/27 05:24:31;;;;;;;10.45;6.50;;;;;;;12.35;72.90;101222.20;1753323;79;20995;-63
2022/10/27 05:26:59;;;;;;;15.55;6.47;;;;;;;12.35;72.84;101215.59;1780444;80;21038;-64
2022/10/27 05:29:25;;;;;;;12.78;5.72;;;;;;;12.40;72.75;101222.70;1752282;79;21014;-64
2022/10/27 05:31:52;;;;;;;16.67;6.92;;;;;;;12.38;72.68;101218.02;1752272;80;21049;-63
2022/10/27 05:34:18;;;;;;;10.88;6.30;;;;;;;12.33;72.78;101221.97;1753733;79;21965;-63
2022/10/27 05:36:46;;;;;;;9.88;5.78;;;;;;;12.35;72.72;101226.64;1715700;82;21014;-63
2022/10/27 05:39:13;;;;;;;11.83;5.95;;;;;;;12.41;72.53;101226.20;1773773;79;21054;-64
2022/10/27 05:41:39;;;;;;;12.45;6.28;;;;;;;12.43;72.28;101218.52;1772927;79;21774;-64
2022/10/27 05:44:08;;;;;;;11.45;6.92;;;;;;;12.44;72.21;101226.81;1774279;79;21028;-64
2022/10/27 05:46:36;;;;;;;18.62;6.40;;;;;;;12.43;72.10;101225.59;1775033;79;21250;-64
2022/10/27 05:49:03;;;;;;;12.05;6.00;;;;;;;12.40;71.99;101240.34;1733619;82;20987;-64
2022/10/27 05:51:29;;;;;;;9.35;5.83;;;;;;;12.42;71.91;101231.37;1761606;79;21571;-64
2022/10/27 05:56:29;;;;;;;9.73;5.92;;;;;;;12.35;72.37;101235.88;1777436;78;22839;-69
2022/10/27 05:58:56;;;;;;;13.00;6.00;;;;;;;12.47;71.55;101240.23;1744554;81;20971;-68
2022/10/27 06:01:23;;;;;;;9.45;5.28;;;;;;;12.47;71.61;101249.48;1748575;81;21093;-69
2022/10/27 06:03:49;;;;;;;10.40;6.00;;;;;;;12.51;71.50;101253.59;1755223;81;21039;-68
2022/10/27 06:06:16;;;;;;;9.05;6.22;;;;;;;12.52;71.36;101256.58;1722955;83;20994;-68
2022/10/27 06:08:43;;;;;;;12.37;5.62;;;;;;;12.43;71.53;101255.47;1723117;83;21034;-68
2022/10/27 06:11:09;;;;;;;12.30;6.20;;;;;;;12.38;71.52;101257.61;1703924;83;20872;-68
2022/10/27 06:13:36;;;;;;;10.03;6.20;;;;;;;12.35;71.64;101259.14;1702624;84;21072;-68
2022/10/27 06:16:03;;;;;;;10.23;6.53;;;;;;;12.37;71.61;101262.54;1696590;84;20912;-69
2022/10/27 06:18:31;;;;;;;12.43;6.60;;;;;;;12.41;71.69;101265.30;1696181;81;21187;-69
2022/10/27 06:20:58;;;;;;;10.95;6.00;;;;;;;12.47;71.72;101268.44;1714618;82;21500;-68
2022/10/27 06:23:24;;;;;;;10.88;6.33;;;;;;;12.49;71.43;101271.34;1690818;84;21076;-68
2022/10/27 06:25:51;;;;;;;10.43;5.65;;;;;;;12.48;71.36;101274.09;1693427;84;21144;-68
2022/10/27 06:28:17;;;;;;;11.53;5.75;;;;;;;12.50;71.20;101270.86;1685842;84;21031;-68
2022/10/27 06:30:44;;;;;;;12.60;7.05;;;;;;;12.50;71.24;101274.81;1681746;84;21019;-69
2022/10/27 06:33:11;;;;;;;11.38;6.72;;;;;;;12.48;71.29;101273.61;1684958;84;21824;-69
2022/10/27 06:35:38;;;;;;;13.55;6.75;;;;;;;12.49;71.34;101286.32;1703172;83;21079;-69
2022/10/27 06:38:05;;;;;;;10.95;6.62;;;;;;;12.47;71.01;101282.47;1693100;83;21144;-68
2022/10/27 06:40:31;;;;;;;11.08;6.95;;;;;;;12.51;71.18;101285.27;1697217;83;21058;-69
2022/10/27 06:42:58;;;;;;;11.05;6.28;;;;;;;12.57;70.91;101287.92;1694372;83;21350;-68
2022/10/27 06:45:24;;;;;;;12.07;6.37;;;;;;;12.60;70.93;101285.89;1684396;83;21027;-68
2022/10/27 06:48:00;;;;;;;10.15;5.92;;;;;;;12.63;70.89;101290.95;1709720;84;21563;-68
2022/10/27 06:50:26;;;;;;;13.03;5.78;;;;;;;12.68;70.67;101293.25;1688577;83;21137;-68
2022/10/27 06:52:53;;;;;;;10.45;6.47;;;;;;;12.74;70.19;101291.95;1693411;83;21119;-68
2022/10/27 06:55:20;;;;;;;10.18;5.83;;;;;;;12.77;70.06;101296.52;1700633;83;21104;-68
2022/10/27 06:57:46;;;;;;;9.83;6.25;;;;;;;12.73;69.95;101296.39;1740516;82;21042;-68
2022/10/27 07:00:14;;;;;;;9.03;5.80;;;;;;;12.71;70.01;101307.55;1738279;80;21508;-69
2022/10/27 07:02:41;;;;;;;8.45;5.50;;;;;;;12.70;69.60;101302.39;1736527;80;21241;-68
2022/10/27 07:05:08;;;;;;;9.53;5.87;;;;;;;12.70;69.17;101303.70;1740758;80;20989;-68
2022/10/27 07:07:35;;;;;;;9.73;5.60;;;;;;;12.70;69.38;101303.22;1740077;82;21004;-68
2022/10/27 07:10:05;;;;;;;10.72;5.90;;;;;;;12.67;69.29;101310.05;1738129;80;21568;-68
2022/10/27 07:12:31;;;;;;;11.08;5.78;;;;;;;12.63;69.29;101304.64;1730304;80;21106;-68
2022/10/27 07:14:57;;;;;;;8.65;5.05;;;;;;;12.61;69.35;101299.47;1739479;80;21938;-68
2022/10/27 07:17:24;;;;;;;9.55;5.62;;;;;;;12.68;69.20;101305.14;1732965;82;21059;-68
2022/10/27 07:19:50;;;;;;;9.23;5.62;;;;;;;12.73;69.02;101303.00;1735411;82;21532;-68
2022/10/27 07:22:17;;;;;;;17.98;6.28;;;;;;;12.77;68.97;101305.76;1737090;80;21497;-68
2022/10/27 07:24:44;;;;;;;9.28;5.62;;;;;;;12.75;69.00;101307.68;1738137;82;21034;-68
2022/10/27 07:27:11;;;;;;;9.80;5.37;;;;;;;12.71;69.18;101310.20;1738669;80;21143;-68
2022/10/27 07:29:39;;;;;;;11.50;5.92;;;;;;;12.77;69.00;101311.53;1739580;82;21031;-68
2022/10/27 07:32:06;;;;;;;8.98;5.85;;;;;;;12.79;68.62;101314.44;1734295;80;21063;-68
2022/10/27 07:34:32;;;;;;;13.60;7.25;;;;;;;12.81;68.57;101319.61;1733168;80;21110;-68
2022/10/27 07:36:59;;;;;;;12.18;6.70;;;;;;;12.77;68.51;101313.68;1732962;80;21040;-69
2022/10/27 07:39:25;;;;;;;11.93;6.42;;;;;;;12.76;68.61;101321.26;1735640;82;21257;-68
2022/10/27 07:41:53;;;;;;;9.53;6.20;;;;;;;12.77;68.79;101320.28;1741746;80;21047;-69
2022/10/27 07:44:20;;;;;;;13.55;6.25;;;;;;;12.81;68.67;101317.80;1740716;81;21040;-67
2022/10/27 07:46:46;;;;;;;13.60;6.20;;;;;;;12.93;68.62;101325.77;1736559;80;21056;-68
2022/10/27 07:49:13;;;;;;;12.37;6.60;;;;;;;12.99;68.05;101316.91;1713774;80;21054;-68
2022/10/27 07:51:40;;;;;;;13.18;7.30;;;;;;;13.01;67.98;101324.23;1718962;82;21209;-68
2022/10/27 07:54:06;;;;;;;10.88;5.72;;;;;;;13.04;67.83;101324.95;1736688;80;20999;-68
2022/10/27 07:56:35;;;;;;;11.60;5.70;;;;;;;13.06;67.75;101327.82;1739048;80;21823;-68
2022/10/27 07:59:01;;;;;;;9.05;5.67;;;;;;;13.11;67.49;101336.27;1752285;81;21020;-68
2022/10/27 08:01:28;;;;;;;9.70;6.12;;;;;;;13.16;67.35;101338.09;1752171;80;21007;-68
2022/10/27 08:03:55;;;;;;;9.23;5.45;;;;;;;13.17;67.61;101343.71;1742463;81;21313;-68
2022/10/27 08:06:22;;;;;;;10.32;5.10;;;;;;;13.22;67.51;101341.22;1747946;80;21027;-68
2022/10/27 08:08:49;;;;;;;9.13;5.00;;;;;;;13.25;67.46;101335.70;1740966;80;21022;-68
2022/10/27 08:11:17;;;;;;;7.33;4.97;;;;;;;13.27;67.05;101344.35;1734342;80;21047;-69
2022/10/27 08:13:45;;;;;;;10.13;4.72;;;;;;;13.32;66.39;101338.27;1729079;80;21039;-69
2022/10/27 08:16:11;;;;;;;8.70;4.65;;;;;;;13.31;65.78;101340.50;1731832;80;21244;-69
2022/10/27 08:18:38;;;;;;;10.43;5.35;;;;;;;13.30;66.08;101348.92;1750441;80;21559;-68
2022/10/27 08:21:05;;;;;;;8.23;4.45;;;;;;;13.30;66.03;101350.73;1754956;81;21055;-68
2022/10/27 08:23:32;;;;;;;10.18;4.87;;;;;;;13.30;65.77;101349.41;1753111;80;21038;-69
2022/10/27 08:25:58;;;;;;;12.78;4.78;;;;;;;13.33;65.97;101351.37;1747187;81;21078;-68
2022/10/27 08:28:25;;;;;;;8.23;4.70;;;;;;;13.39;65.97;101351.36;1747925;81;21239;-68
2022/10/27 08:30:53;;;;;;;8.50;4.75;;;;;;;13.43;65.98;101349.33;1755884;81;21571;-68
2022/10/27 08:33:22;;;;;;;8.45;4.70;;;;;;;13.46;65.83;101356.53;1745258;80;21335;-68
2022/10/27 08:35:49;;;;;;;10.43;4.92;;;;;;;13.50;65.87;101358.46;1745988;81;21095;-68
2022/10/27 08:38:16;;;;;;;8.20;4.45;;;;;;;13.60;65.89;101363.89;1734847;81;21046;-68
2022/10/27 08:40:52;;;;;;;8.30;4.60;;;;;;;13.71;65.10;101353.33;1725855;81;22255;-68
2022/10/27 08:43:41;;;;;;;8.13;4.33;;;;;;;13.79;64.95;101354.06;1730110;81;21039;-68
2022/10/27 08:46:23;;;;;;;7.55;4.50;;;;;;;13.81;64.63;101357.42;1728243;81;21070;-69
2022/10/27 08:48:54;;;;;;;9.45;5.08;;;;;;;13.82;64.31;101354.66;1733344;80;21063;-69
2022/10/27 08:51:21;;;;;;;10.08;4.80;;;;;;;13.83;64.31;101360.78;1748536;80;21110;-68
2022/10/27 08:53:50;;;;;;;7.45;4.25;;;;;;;13.85;64.37;101365.01;1728498;82;21234;-69
2022/10/27 08:56:17;;;;;;;7.22;4.58;;;;;;;13.91;63.81;101365.83;1743832;81;21039;-69
2022/10/27 08:58:47;;;;;;;8.40;5.00;;;;;;;13.91;63.78;101368.97;1747612;81;21806;-68
2022/10/27 09:01:22;;;;;;;9.33;4.85;;;;;;;13.88;63.97;101366.06;1751722;80;21110;-68
2022/10/27 09:04:06;;;;;;;9.57;4.53;;;;;;;13.87;64.07;101373.66;1746686;81;21078;-69
2022/10/27 09:06:43;;;;;;;8.18;4.50;;;;;;;13.84;64.03;101372.57;1748602;80;21208;-69
2022/10/27 09:09:29;;;;;;;8.98;4.80;;;;;;;13.85;64.35;101373.41;1747357;80;21038;-69
2022/10/27 09:12:26;;;;;;;9.30;5.08;;;;;;;13.93;64.20;101379.77;1735075;80;21082;-67
2022/10/27 09:15:16;;;;;;;12.90;5.12;;;;;;;13.98;64.17;101383.88;1745907;80;21233;-66
2022/10/27 09:18:20;;;;;;;11.60;5.30;;;;;;;13.99;63.96;101380.28;1745043;81;21038;-67
2022/10/27 09:20:53;;;;;;;9.03;5.12;;;;;;;13.99;64.20;101384.25;1744629;80;22285;-69
2022/10/27 09:23:25;;;;;;;10.60;4.58;;;;;;;14.00;63.64;101384.11;1751573;80;21043;-68
2022/10/27 09:25:51;;;;;;;8.20;4.40;;;;;;;14.03;63.82;101383.03;1742056;80;21027;-68
2022/10/27 09:28:42;;;;;;;11.05;5.30;;;;;;;14.11;63.65;101379.30;1730078;81;21098;-68
2022/10/27 09:33:14;;;;;;;11.78;5.35;;;;;;;14.06;63.74;101381.48;1781730;78;22454;-68
2022/10/27 09:35:40;;;;;;;10.00;5.28;;;;;;;14.04;63.77;101384.73;1758867;80;21013;-68
2022/10/27 09:38:15;;;;;;;10.88;4.95;;;;;;;14.02;64.13;101383.98;1759973;80;21207;-68
2022/10/27 09:40:42;;;;;;;7.08;4.30;;;;;;;13.97;64.12;101382.19;1764103;79;21021;-68
2022/10/27 09:43:08;;;;;;;10.28;4.92;;;;;;;14.01;64.31;101387.13;1747269;79;21005;-68
2022/10/27 09:47:37;;;;;;;8.80;4.53;;;;;;;14.05;64.08;101384.58;1793019;77;22633;-68
2022/10/27 09:51:13;;;;;;;7.47;4.50;;;;;;;14.03;64.33;101387.00;1788075;78;22627;-69
2022/10/27 09:53:46;;;;;;;9.05;5.00;;;;;;;14.09;64.12;101391.33;1766937;80;20868;-69
2022/10/27 09:56:20;;;;;;;8.23;4.67;;;;;;;14.10;63.87;101389.52;1756859;80;21464;-69
2022/10/27 09:58:57;;;;;;;6.97;4.12;;;;;;;14.06;63.95;101383.63;1756147;81;21665;-68
2022/10/27 10:01:26;;;;;;;7.70;4.28;;;;;;;14.05;63.69;101390.36;1784023;80;21361;-68
2022/10/27 10:03:55;;;;;;;8.85;3.90;;;;;;;14.03;63.93;101389.16;1787376;80;21559;-68
2022/10/27 10:06:26;;;;;;;8.25;4.25;;;;;;;14.11;63.62;101384.11;1764606;80;21500;-69
2022/10/27 10:08:54;;;;;;;9.53;4.45;;;;;;;14.19;63.36;101389.27;1782365;80;21019;-68
2022/10/27 10:11:21;;;;;;;9.95;4.55;;;;;;;14.22;63.12;101392.54;1784699;80;21058;-69
2022/10/27 10:13:58;;;;;;;14.25;4.60;;;;;;;14.20;62.89;101387.82;1782534;80;21001;-69
2022/10/27 10:16:26;;;;;;;7.78;4.28;;;;;;;14.18;63.01;101386.28;1778836;80;21093;-68
2022/10/27 10:19:07;;;;;;;13.85;4.80;;;;;;;14.13;62.90;101385.31;1759408;80;21122;-69
2022/10/27 10:21:56;;;;;;;7.33;4.10;;;;;;;14.13;63.36;101382.66;1768192;80;21268;-69
2022/10/27 10:24:32;;;;;;;7.92;4.58;;;;;;;14.22;63.36;101381.09;1767466;80;21031;-69
2022/10/27 10:27:01;;;;;;;9.90;4.80;;;;;;;14.27;63.08;101383.75;1774982;80;21053;-69
2022/10/27 10:29:33;;;;;;;11.20;5.33;;;;;;;14.30;62.73;101382.16;1765092;80;21614;-69
2022/10/27 10:32:18;;;;;;;9.68;5.10;;;;;;;14.34;62.71;101384.09;1759847;80;21028;-68
2022/10/27 10:34:46;;;;;;;7.35;5.20;;;;;;;14.36;62.66;101382.66;1769556;80;21135;-68
2022/10/27 10:37:41;;;;;;;9.25;4.50;;;;;;;14.40;62.47;101382.27;1769083;80;21055;-68
2022/10/27 10:40:18;;;;;;;10.45;5.00;;;;;;;14.42;62.30;101378.17;1768904;80;21058;-69
2022/10/27 10:42:47;;;;;;;8.63;4.67;;;;;;;14.49;61.94;101378.89;1761461;80;21047;-69
2022/10/27 10:45:29;;;;;;;8.98;4.45;;;;;;;14.55;61.76;101376.70;1766126;80;21032;-69
2022/10/27 10:47:59;;;;;;;9.98;4.50;;;;;;;14.58;61.74;101373.32;1768700;80;21781;-68
2022/10/27 10:50:27;;;;;;;10.75;4.85;;;;;;;14.61;61.70;101385.03;1768878;80;21533;-69
2022/10/27 10:52:56;;;;;;;9.85;4.87;;;;;;;14.58;61.41;101378.62;1767245;80;21044;-69
2022/10/27 10:55:30;;;;;;;9.23;4.47;;;;;;;14.60;61.55;101383.34;1771023;80;21051;-68
2022/10/27 10:57:57;;;;;;;7.22;4.17;;;;;;;14.59;61.64;101380.80;1767627;80;21524;-68
2022/10/27 11:00:24;;;;;;;10.05;4.53;;;;;;;14.62;61.13;101382.72;1702712;83;21194;-67
2022/10/27 11:03:03;;;;;;;7.83;3.75;;;;;;;14.67;61.43;101394.27;1760167;80;20988;-67
2022/10/27 11:05:34;;;;;;;11.28;5.05;;;;;;;14.64;61.35;101379.48;1752035;80;21034;-68
2022/10/27 11:08:04;;;;;;;10.93;4.95;;;;;;;14.64;61.36;101383.92;1760246;80;21040;-68
2022/10/27 11:10:34;;;;;;;8.10;4.62;;;;;;;14.65;61.20;101386.94;1747722;80;21087;-68
2022/10/27 11:13:20;;;;;;;8.60;4.80;;;;;;;14.67;61.01;101383.19;1747969;80;21243;-68
2022/10/27 11:16:00;;;;;;;7.58;4.10;;;;;;;14.70;61.21;101383.43;1755089;80;21050;-67
2022/10/27 11:18:51;;;;;;;7.50;4.22;;;;;;;14.74;61.25;101381.37;1754350;80;21137;-68
2022/10/27 11:21:32;;;;;;;7.50;3.70;;;;;;;14.85;60.87;101387.47;1766809;80;21074;-68
2022/10/27 11:24:15;;;;;;;8.88;4.47;;;;;;;14.88;60.20;101388.17;1771229;80;21095;-68
2022/10/27 11:27:04;;;;;;;8.58;4.35;;;;;;;14.81;60.32;101382.08;1751791;80;21166;-68
2022/10/27 11:30:01;;;;;;;7.87;4.87;;;;;;;14.79;60.14;101380.51;1743340;80;21020;-68
2022/10/27 11:32:52;;;;;;;7.78;4.25;;;;;;;14.78;59.89;101382.81;1756224;80;21051;-68
2022/10/27 11:35:34;;;;;;;10.48;4.58;;;;;;;14.75;60.01;101381.73;1752705;80;21613;-68
2022/10/27 11:38:25;;;;;;;9.33;4.87;;;;;;;14.75;60.16;101401.61;1753710;80;21512;-68
2022/10/27 11:41:03;;;;;;;11.18;4.35;;;;;;;14.78;59.89;101384.98;1755390;80;21310;-68
2022/10/27 11:43:41;;;;;;;8.40;4.40;;;;;;;14.91;59.57;101391.44;1754798;80;21050;-68
2022/10/27 11:46:16;;;;;;;7.15;4.00;;;;;;;15.04;59.42;101392.08;1758300;80;22324;-68
2022/10/27 11:49:06;;;;;;;9.83;4.72;;;;;;;15.10;59.38;101394.73;1754588;80;21051;-68